createdAt,value
2022-10-23T00:01:51.806Z,13.30
2022-10-23T00:04:25.322Z,13.20
2022-10-23T00:06:55.276Z,13.10
2022-10-23T00:09:26.238Z,12.90
2022-10-23T00:11:54.781Z,12.80
2022-10-23T00:14:26.204Z,12.70
2022-10-23T00:16:54.823Z,12.80
2022-10-23T00:19:23.369Z,12.90
2022-10-23T00:21:51.994Z,12.90
2022-10-23T00:24:21.878Z,12.80
2022-10-23T00:26:51.801Z,12.80
2022-10-23T00:29:20.415Z,12.80
2022-10-23T00:31:49.036Z,12.70
2022-10-23T00:34:17.616Z,12.60
2022-10-23T00:36:46.189Z,12.60
2022-10-23T00:39:14.749Z,12.60
2022-10-23T00:41:44.645Z,12.60
2022-10-23T00:45:10.643Z,12.60
2022-10-23T00:47:39.796Z,12.50
2022-10-23T00:50:09.574Z,12.50
2022-10-23T00:52:47.663Z,12.40
2022-10-23T00:55:17.386Z,12.30
2022-10-23T00:57:50.381Z,12.30
2022-10-23T01:00:26.903Z,12.20
2022-10-23T01:02:58.675Z,12.10
2022-10-23T01:05:37.501Z,12.10
2022-10-23T01:08:13.360Z,12.00
2022-10-23T01:10:48.961Z,11.90
2022-10-23T01:13:28.755Z,11.90
2022-10-23T01:16:07.306Z,11.90
2022-10-23T01:18:45.689Z,11.90
2022-10-23T01:21:23.217Z,11.80
2022-10-23T01:24:11.322Z,11.80
2022-10-23T01:27:03.678Z,11.70
2022-10-23T01:29:40.677Z,11.70
2022-10-23T01:32:16.220Z,11.80
2022-10-23T01:34:51.432Z,11.80
2022-10-23T01:37:28.642Z,11.70
2022-10-23T01:40:03.729Z,11.70
2022-10-23T01:42:39.897Z,11.70
2022-10-23T01:45:18.596Z,11.60
2022-10-23T01:47:49.000Z,11.60
2022-10-23T01:50:20.911Z,11.60
2022-10-23T01:52:49.584Z,11.60
2022-10-23T01:55:18.860Z,11.60
2022-10-23T01:57:50.944Z,11.60
2022-10-23T02:00:22.922Z,11.50
2022-10-23T02:02:53.854Z,11.40
2022-10-23T02:05:27.561Z,11.50
2022-10-23T02:07:57.062Z,11.50
2022-10-23T02:10:35.918Z,11.50
2022-10-23T02:13:12.290Z,11.40
2022-10-23T02:15:50.034Z,11.40
2022-10-23T02:18:36.302Z,11.40
2022-10-23T02:21:12.086Z,11.40
2022-10-23T02:23:52.541Z,11.40
2022-10-23T02:26:29.860Z,11.30
2022-10-23T02:29:08.565Z,11.20
2022-10-23T02:31:38.768Z,11.10
2022-10-23T02:34:07.576Z,11.10
2022-10-23T02:36:36.409Z,11.10
2022-10-23T02:39:05.469Z,11.00
2022-10-23T02:41:43.545Z,11.10
2022-10-23T02:44:41.928Z,10.90
2022-10-23T02:47:27.348Z,10.70
2022-10-23T02:50:08.213Z,10.50
2022-10-23T02:52:47.250Z,10.40
2022-10-23T02:55:33.020Z,10.40
2022-10-23T02:58:10.595Z,10.50
2022-10-23T03:00:46.572Z,10.50
2022-10-23T03:03:22.835Z,10.50
2022-10-23T03:05:52.151Z,10.50
2022-10-23T03:08:20.741Z,10.50
2022-10-23T03:10:49.441Z,10.50
2022-10-23T03:13:18.591Z,10.40
2022-10-23T03:15:47.146Z,10.40
2022-10-23T03:18:17.157Z,10.40
2022-10-23T03:20:45.766Z,10.40
2022-10-23T03:23:15.153Z,10.40
2022-10-23T03:25:43.685Z,10.30
2022-10-23T03:28:12.796Z,10.30
2022-10-23T03:30:41.353Z,10.20
2022-10-23T03:33:09.925Z,10.10
2022-10-23T03:35:39.945Z,10.10
2022-10-23T03:38:08.648Z,10.20
2022-10-23T03:40:37.217Z,10.10
2022-10-23T03:43:05.901Z,10.00
2022-10-23T03:45:34.433Z,9.80
2022-10-23T03:48:03.030Z,9.60
2022-10-23T03:50:31.656Z,9.60
2022-10-23T03:53:01.594Z,9.50
2022-10-23T03:55:30.622Z,9.40
2022-10-23T03:57:59.243Z,9.30
2022-10-23T04:00:27.793Z,9.20
2022-10-23T04:02:56.361Z,9.30
2022-10-23T04:05:25.053Z,9.30
2022-10-23T04:07:53.627Z,9.50
2022-10-23T04:10:23.678Z,9.50
2022-10-23T04:12:52.340Z,9.50
2022-10-23T04:15:20.893Z,9.50
2022-10-23T04:17:49.387Z,9.60
2022-10-23T04:20:18.609Z,9.70
2022-10-23T04:22:47.149Z,9.60
2022-10-23T04:25:16.656Z,9.70
2022-10-23T04:27:46.683Z,9.70
2022-10-23T04:30:15.558Z,9.70
2022-10-23T04:32:44.089Z,9.70
2022-10-23T04:35:12.786Z,9.80
2022-10-23T04:37:41.610Z,9.80
2022-10-23T04:40:11.725Z,9.80
2022-10-23T04:42:40.507Z,9.80
2022-10-23T04:45:12.120Z,9.90
2022-10-23T04:47:40.675Z,9.90
2022-10-23T04:50:09.560Z,10.00
2022-10-23T04:52:38.071Z,10.10
2022-10-23T04:55:09.956Z,10.10
2022-10-23T04:57:38.559Z,10.20
2022-10-23T05:00:13.955Z,10.20
2022-10-23T05:02:42.724Z,10.20
2022-10-23T05:05:12.068Z,10.20
2022-10-23T05:07:40.857Z,10.20
2022-10-23T05:10:10.768Z,10.20
2022-10-23T05:12:39.341Z,10.30
2022-10-23T05:15:10.720Z,10.30
2022-10-23T05:17:45.228Z,10.30
2022-10-23T05:20:22.551Z,10.40
2022-10-23T05:22:55.568Z,10.40
2022-10-23T05:25:24.213Z,10.50
2022-10-23T05:27:53.567Z,10.50
2022-10-23T05:30:23.531Z,10.50
2022-10-23T05:32:52.170Z,10.50
2022-10-23T05:35:24.578Z,10.60
2022-10-23T05:37:56.650Z,10.50
2022-10-23T05:40:25.769Z,10.40
2022-10-23T05:42:54.691Z,10.30
2022-10-23T05:45:24.725Z,10.20
2022-10-23T05:47:53.924Z,10.20
2022-10-23T05:50:23.754Z,10.10
2022-10-23T05:52:52.448Z,10.10
2022-10-23T05:55:21.176Z,10.00
2022-10-23T05:57:49.744Z,10.00
2022-10-23T06:00:18.697Z,10.00
2022-10-23T06:02:48.612Z,10.00
2022-10-23T06:05:17.377Z,9.90
2022-10-23T06:07:46.211Z,10.10
2022-10-23T06:10:15.070Z,10.10
2022-10-23T06:12:43.611Z,10.10
2022-10-23T06:15:12.708Z,10.20
2022-10-23T06:17:41.587Z,10.30
2022-10-23T06:20:12.822Z,10.30
2022-10-23T06:22:41.477Z,10.40
2022-10-23T06:25:11.057Z,10.30
2022-10-23T06:27:39.657Z,10.40
2022-10-23T06:30:10.307Z,10.40
2022-10-23T06:32:38.907Z,10.40
2022-10-23T06:35:08.996Z,10.50
2022-10-23T06:37:38.924Z,10.40
2022-10-23T06:40:09.542Z,10.50
2022-10-23T06:42:38.198Z,10.50
2022-10-23T06:45:08.265Z,10.60
2022-10-23T06:47:36.812Z,10.60
2022-10-23T06:50:07.904Z,10.60
2022-10-23T06:52:46.900Z,10.70
2022-10-23T06:55:16.844Z,10.70
2022-10-23T06:57:46.017Z,10.80
2022-10-23T07:00:15.798Z,10.80
2022-10-23T07:02:44.718Z,10.70
2022-10-23T07:05:13.938Z,10.60
2022-10-23T07:07:44.062Z,10.60
2022-10-23T07:12:42.478Z,10.60
2022-10-23T07:15:11.891Z,10.60
2022-10-23T07:17:40.527Z,10.60
2022-10-23T07:20:09.941Z,10.50
2022-10-23T07:22:38.755Z,10.60
2022-10-23T07:25:09.600Z,10.60
2022-10-23T07:27:39.581Z,10.60
2022-10-23T07:30:09.828Z,10.60
2022-10-23T07:32:38.371Z,10.60
2022-10-23T07:35:09.385Z,10.50
2022-10-23T07:37:38.199Z,10.70
2022-10-23T07:40:10.046Z,10.80
2022-10-23T07:42:38.935Z,10.90
2022-10-23T07:45:09.384Z,11.00
2022-10-23T07:47:37.913Z,10.90
2022-10-23T07:50:07.616Z,10.70
2022-10-23T07:52:36.903Z,10.90
2022-10-23T07:55:06.421Z,11.10
2022-10-23T07:57:36.411Z,11.20
2022-10-23T08:00:06.259Z,11.30
2022-10-23T08:02:35.037Z,11.50
2022-10-23T08:05:03.617Z,11.50
2022-10-23T08:07:32.212Z,11.60
2022-10-23T08:10:00.696Z,11.70
2022-10-23T08:12:29.278Z,11.80
2022-10-23T08:14:59.280Z,11.90
2022-10-23T08:17:28.355Z,11.90
2022-10-23T08:19:57.000Z,12.00
2022-10-23T08:22:25.656Z,11.90
2022-10-23T08:24:54.209Z,11.90
2022-10-23T08:27:22.807Z,12.00
2022-10-23T08:29:51.329Z,12.00
2022-10-23T08:32:21.702Z,12.20
2022-10-23T08:34:50.249Z,12.30
2022-10-23T08:37:18.909Z,12.30
2022-10-23T08:39:50.130Z,12.50
2022-10-23T08:42:24.897Z,12.40
2022-10-23T08:45:03.527Z,12.20
2022-10-23T08:47:42.295Z,12.10
2022-10-23T08:50:25.424Z,12.00
2022-10-23T08:53:03.648Z,12.20
2022-10-23T08:55:38.722Z,12.30
2022-10-23T08:58:15.566Z,12.40
2022-10-23T09:00:45.833Z,12.40
2022-10-23T09:03:15.970Z,12.50
2022-10-23T09:06:03.540Z,12.50
2022-10-23T09:08:52.292Z,12.40
2022-10-23T09:11:34.028Z,12.40
2022-10-23T09:14:36.185Z,12.40
2022-10-23T09:17:21.349Z,12.20
2022-10-23T09:20:00.378Z,12.20
2022-10-23T09:22:30.379Z,12.20
2022-10-23T09:24:58.983Z,12.20
2022-10-23T09:27:27.502Z,12.30
2022-10-23T09:29:59.462Z,12.20
2022-10-23T09:32:37.598Z,12.20
2022-10-23T09:35:22.590Z,12.20
2022-10-23T09:37:53.362Z,12.30
2022-10-23T09:40:34.125Z,12.20
2022-10-23T09:43:17.684Z,12.30
2022-10-23T09:45:58.468Z,12.20
2022-10-23T09:48:27.484Z,12.20
2022-10-23T09:51:00.706Z,12.10
2022-10-23T09:53:38.204Z,12.10
2022-10-23T09:56:24.673Z,12.00
2022-10-23T09:58:57.585Z,12.00
2022-10-23T10:01:29.419Z,12.20
2022-10-23T10:03:58.227Z,12.00
2022-10-23T10:06:31.616Z,12.00
2022-10-23T10:09:03.409Z,12.00
2022-10-23T10:11:42.751Z,12.00
2022-10-23T10:14:49.813Z,12.10
2022-10-23T10:17:31.608Z,12.00
2022-10-23T10:20:20.747Z,11.90
2022-10-23T10:22:59.580Z,11.80
2022-10-23T10:25:37.424Z,11.70
2022-10-23T10:28:35.670Z,11.70
2022-10-23T10:31:18.014Z,11.70
2022-10-23T10:33:59.986Z,11.80
2022-10-23T10:36:50.720Z,11.80
2022-10-23T10:39:44.248Z,11.80
2022-10-23T10:42:31.884Z,11.80
2022-10-23T10:45:32.293Z,11.80
2022-10-23T10:48:24.779Z,11.70
2022-10-23T10:51:01.834Z,11.70
2022-10-23T10:53:48.877Z,11.60
2022-10-23T10:56:23.129Z,11.80
2022-10-23T10:58:57.727Z,11.80
2022-10-23T11:01:31.950Z,12.00
2022-10-23T11:04:08.074Z,11.90
2022-10-23T11:06:39.536Z,11.90
2022-10-23T11:09:21.325Z,11.80
2022-10-23T11:11:51.588Z,11.70
2022-10-23T11:14:23.738Z,11.80
2022-10-23T11:16:57.804Z,11.70
2022-10-23T11:19:32.232Z,11.80
2022-10-23T11:22:12.364Z,11.80
2022-10-23T11:25:28.843Z,11.80
2022-10-23T11:28:23.823Z,11.80
2022-10-23T11:31:12.213Z,11.80
2022-10-23T11:34:40.434Z,11.80
2022-10-23T11:37:09.215Z,11.90
2022-10-23T11:39:40.884Z,12.00
2022-10-23T11:42:30.044Z,11.90
2022-10-23T11:45:00.122Z,12.00
2022-10-23T11:47:39.523Z,12.10
2022-10-23T11:50:30.115Z,12.10
2022-10-23T11:53:21.150Z,12.10
2022-10-23T11:56:02.650Z,12.10
2022-10-23T11:58:44.814Z,12.00
2022-10-23T12:01:38.362Z,12.10
2022-10-23T12:04:23.605Z,12.20
2022-10-23T12:06:56.294Z,12.00
2022-10-23T12:09:33.159Z,11.90
2022-10-23T12:12:29.447Z,11.90
2022-10-23T12:15:20.040Z,11.90
2022-10-23T12:17:51.767Z,12.00
2022-10-23T12:20:46.308Z,12.00
2022-10-23T12:23:34.866Z,11.90
2022-10-23T12:26:40.902Z,11.90
2022-10-23T12:29:26.011Z,12.00
2022-10-23T12:32:05.875Z,12.00
2022-10-23T12:34:49.057Z,12.00
2022-10-23T12:37:57.883Z,12.00
2022-10-23T12:40:29.915Z,12.30
2022-10-23T12:43:01.351Z,12.40
2022-10-23T12:45:34.168Z,12.30
2022-10-23T12:48:02.851Z,12.20
2022-10-23T12:50:36.114Z,12.30
2022-10-23T12:53:08.769Z,12.40
2022-10-23T12:55:51.188Z,12.40
2022-10-23T12:58:25.501Z,12.50
2022-10-23T13:00:57.305Z,12.50
2022-10-23T13:03:28.887Z,12.50
2022-10-23T13:06:02.780Z,12.60
2022-10-23T13:08:38.013Z,12.50
2022-10-23T13:11:09.749Z,12.50
2022-10-23T13:13:38.379Z,12.60
2022-10-23T13:16:16.549Z,12.60
2022-10-23T13:18:45.150Z,12.60
2022-10-23T13:21:23.485Z,12.50
2022-10-23T13:23:53.850Z,12.60
2022-10-23T13:26:33.950Z,12.60
2022-10-23T13:29:07.319Z,12.70
2022-10-23T13:31:38.515Z,12.70
2022-10-23T13:34:19.334Z,12.70
2022-10-23T13:37:05.647Z,12.60
2022-10-23T13:39:35.543Z,12.50
2022-10-23T13:42:14.826Z,12.50
2022-10-23T13:44:44.395Z,12.40
2022-10-23T13:47:15.572Z,12.40
2022-10-23T13:49:44.102Z,12.40
2022-10-23T13:52:20.157Z,12.40
2022-10-23T13:54:49.999Z,12.40
2022-10-23T13:57:18.813Z,12.50
2022-10-23T13:59:47.469Z,12.50
2022-10-23T14:02:22.555Z,12.50
2022-10-23T14:04:53.322Z,12.50
2022-10-23T14:07:23.254Z,12.60
2022-10-23T14:09:51.829Z,12.60
2022-10-23T14:12:20.388Z,12.60
2022-10-23T14:14:52.865Z,12.50
2022-10-23T14:17:22.345Z,12.50
2022-10-23T14:19:51.331Z,12.60
2022-10-23T14:22:20.144Z,12.60
2022-10-23T14:24:50.318Z,12.70
2022-10-23T14:27:18.918Z,12.70
2022-10-23T14:29:47.480Z,12.80
2022-10-23T14:32:16.001Z,12.80
2022-10-23T14:34:46.217Z,12.90
2022-10-23T14:37:14.755Z,13.00
2022-10-23T14:39:48.904Z,13.00
2022-10-23T14:42:19.968Z,13.10
2022-10-23T14:44:50.023Z,13.10
2022-10-23T14:47:19.907Z,13.10
2022-10-23T14:49:53.616Z,13.20
2022-10-23T14:52:22.299Z,13.20
2022-10-23T14:54:54.052Z,13.30
2022-10-23T14:57:24.106Z,13.30
2022-10-23T14:59:52.660Z,13.30
2022-10-23T15:02:21.270Z,13.30
2022-10-23T15:04:49.831Z,13.30
2022-10-23T15:07:18.413Z,13.30
2022-10-23T15:09:46.990Z,13.30
2022-10-23T15:12:15.588Z,13.30
2022-10-23T15:14:45.862Z,13.30
2022-10-23T15:17:15.619Z,13.30
2022-10-23T15:19:44.659Z,13.40
2022-10-23T15:22:13.447Z,13.40
2022-10-23T15:24:42.081Z,13.40
2022-10-23T15:27:10.699Z,13.40
2022-10-23T15:29:39.475Z,13.40
2022-10-23T15:32:12.453Z,13.40
2022-10-23T15:34:42.933Z,13.40
2022-10-23T15:37:12.496Z,13.40
2022-10-23T15:39:41.434Z,13.30
2022-10-23T15:42:11.530Z,13.30
2022-10-23T15:44:42.359Z,13.40
2022-10-23T15:47:12.811Z,13.40
2022-10-23T15:49:41.620Z,13.30
2022-10-23T15:52:11.487Z,13.30
2022-10-23T15:54:40.189Z,13.30
2022-10-23T15:57:08.851Z,13.30
2022-10-23T15:59:37.680Z,13.30
2022-10-23T16:02:06.668Z,13.30
2022-10-23T16:04:36.993Z,13.30
2022-10-23T16:07:05.595Z,13.30
2022-10-23T16:09:34.140Z,13.30
2022-10-23T16:12:02.797Z,13.30
2022-10-23T16:14:31.432Z,13.30
2022-10-23T16:17:00.027Z,13.30
2022-10-23T16:19:28.678Z,13.30
2022-10-23T16:21:59.080Z,13.30
2022-10-23T16:24:28.039Z,13.20
2022-10-23T16:26:58.214Z,13.30
2022-10-23T16:29:29.549Z,13.30
2022-10-23T16:31:59.921Z,13.30
2022-10-23T16:34:28.790Z,13.30
2022-10-23T16:36:58.703Z,13.30
2022-10-23T16:39:27.315Z,13.30
2022-10-23T16:41:55.886Z,13.30
2022-10-23T16:44:24.543Z,13.30
2022-10-23T16:46:53.189Z,13.30
2022-10-23T16:49:21.795Z,13.30
2022-10-23T16:51:50.436Z,13.30
2022-10-23T16:54:20.408Z,13.30
2022-10-23T16:56:49.134Z,13.30
2022-10-23T16:59:17.801Z,13.40
2022-10-23T17:01:46.536Z,13.40
2022-10-23T17:04:15.320Z,13.40
2022-10-23T17:06:44.048Z,13.40
2022-10-23T17:09:12.898Z,13.50
2022-10-23T17:11:45.679Z,13.50
2022-10-23T17:14:19.787Z,13.50
2022-10-23T17:16:51.303Z,13.50
2022-10-23T17:19:43.707Z,13.50
2022-10-23T17:22:13.472Z,13.50
2022-10-23T17:24:46.286Z,13.50
2022-10-23T17:27:19.331Z,13.50
2022-10-23T17:29:48.027Z,13.50
2022-10-23T17:32:16.770Z,13.60
2022-10-23T17:34:46.646Z,13.50
2022-10-23T17:37:15.305Z,13.60
2022-10-23T17:39:44.299Z,13.60
2022-10-23T17:42:12.865Z,13.60
2022-10-23T17:44:43.051Z,13.60
2022-10-23T17:47:11.992Z,13.70
2022-10-23T17:49:42.872Z,13.70
2022-10-23T17:52:15.108Z,13.70
2022-10-23T17:54:43.944Z,13.80
2022-10-23T17:57:12.683Z,13.80
2022-10-23T17:59:42.665Z,13.80
2022-10-23T18:02:14.337Z,13.90
2022-10-23T18:04:43.070Z,13.80
2022-10-23T18:07:11.714Z,13.80
2022-10-23T18:09:40.420Z,13.80
2022-10-23T18:12:09.112Z,13.80
2022-10-23T18:14:38.904Z,13.90
2022-10-23T18:17:08.894Z,13.80
2022-10-23T18:19:38.007Z,13.80
2022-10-23T18:22:06.659Z,13.80
2022-10-23T18:24:36.085Z,13.80
2022-10-23T18:27:04.810Z,13.80
2022-10-23T18:29:33.433Z,13.90
2022-10-23T18:32:02.173Z,13.90
2022-10-23T18:34:32.162Z,13.90
2022-10-23T18:37:01.047Z,13.90
2022-10-23T18:39:29.688Z,13.90
2022-10-23T18:41:59.974Z,14.00
2022-10-23T18:44:30.064Z,14.00
2022-10-23T18:47:00.563Z,14.00
2022-10-23T18:49:31.702Z,14.00
2022-10-23T18:52:00.277Z,14.00
2022-10-23T18:54:29.139Z,14.00
2022-10-23T18:56:58.153Z,14.00
2022-10-23T18:59:26.779Z,14.00
2022-10-23T19:01:55.519Z,14.00
2022-10-23T19:04:24.277Z,14.10
2022-10-23T19:06:54.284Z,14.10
2022-10-23T19:09:23.016Z,14.10
2022-10-23T19:11:51.624Z,14.10
2022-10-23T19:14:20.369Z,14.10
2022-10-23T19:17:00.473Z,14.10
2022-10-23T19:19:35.095Z,14.10
2022-10-23T19:22:06.171Z,14.10
2022-10-23T19:24:40.816Z,14.10
2022-10-23T19:27:10.679Z,14.10
2022-10-23T19:29:44.511Z,14.10
2022-10-23T19:32:13.538Z,14.10
2022-10-23T19:34:42.312Z,14.10
2022-10-23T19:37:15.343Z,14.10
2022-10-23T19:39:43.929Z,14.10
2022-10-23T19:42:13.232Z,14.20
2022-10-23T19:44:41.858Z,14.10
2022-10-23T19:47:10.588Z,14.10
2022-10-23T19:49:39.419Z,14.10
2022-10-23T19:52:08.108Z,14.10
2022-10-23T19:54:40.347Z,14.10
2022-10-23T19:57:09.044Z,14.10
2022-10-23T19:59:37.603Z,14.10
2022-10-23T20:02:06.417Z,14.00
2022-10-23T20:04:36.044Z,14.00
2022-10-23T20:07:04.649Z,14.00
2022-10-23T20:09:34.172Z,14.00
2022-10-23T20:12:04.877Z,14.00
2022-10-23T20:14:33.777Z,14.00
2022-10-23T20:17:02.713Z,14.00
2022-10-23T20:19:32.147Z,14.00
2022-10-23T20:22:00.877Z,14.00
2022-10-23T20:24:29.527Z,14.00
2022-10-23T20:26:58.506Z,14.00
2022-10-23T20:29:28.498Z,14.00
2022-10-23T20:31:57.112Z,14.10
2022-10-23T20:34:25.617Z,14.00
2022-10-23T20:36:54.677Z,14.00
2022-10-23T20:39:25.708Z,14.00
2022-10-23T20:41:55.708Z,14.00
2022-10-23T20:44:24.534Z,14.00
2022-10-23T20:46:55.128Z,14.00
2022-10-23T20:49:29.860Z,14.00
2022-10-23T20:51:58.674Z,14.00
2022-10-23T20:54:28.877Z,14.00
2022-10-23T20:56:58.884Z,14.00
2022-10-23T20:59:27.460Z,14.00
2022-10-23T21:01:57.818Z,14.10
2022-10-23T21:04:29.349Z,14.10
2022-10-23T21:07:16.414Z,14.10
2022-10-23T21:09:45.160Z,14.10
2022-10-23T21:12:13.927Z,14.10
2022-10-23T21:14:42.594Z,14.10
2022-10-23T21:17:16.896Z,14.10
2022-10-23T21:19:45.715Z,14.10
2022-10-23T21:22:14.256Z,14.10
2022-10-23T21:24:42.881Z,14.10
2022-10-23T21:27:11.475Z,14.10
2022-10-23T21:29:40.031Z,14.10
2022-10-23T21:32:08.575Z,14.10
2022-10-23T21:34:38.522Z,14.10
2022-10-23T21:37:14.968Z,14.10
2022-10-23T21:39:45.347Z,14.10
2022-10-23T21:42:15.514Z,14.10
2022-10-23T21:44:44.377Z,14.10
2022-10-23T21:47:14.482Z,14.10
2022-10-23T21:49:44.673Z,14.10
2022-10-23T21:52:15.063Z,14.10
2022-10-23T21:54:46.242Z,14.20
2022-10-23T21:57:15.529Z,14.20
2022-10-23T21:59:44.092Z,14.20
2022-10-23T22:02:12.767Z,14.20
2022-10-23T22:04:43.188Z,14.20
2022-10-23T22:07:14.946Z,14.20
2022-10-23T22:09:44.806Z,14.20
2022-10-23T22:12:13.758Z,14.20
2022-10-23T22:14:42.598Z,14.20
2022-10-23T22:17:11.213Z,14.30
2022-10-23T22:19:39.804Z,14.30
2022-10-23T22:22:09.876Z,14.30
2022-10-23T22:24:38.903Z,14.30
2022-10-23T22:27:07.484Z,14.30
2022-10-23T22:29:36.059Z,14.30
2022-10-23T22:32:04.712Z,14.30
2022-10-23T22:34:52.030Z,14.30
2022-10-23T22:37:22.774Z,14.30
2022-10-23T22:39:52.960Z,14.30
2022-10-23T22:42:21.807Z,14.30
2022-10-23T22:44:50.386Z,14.30
2022-10-23T22:47:18.938Z,14.30
2022-10-23T22:49:48.003Z,14.30
2022-10-23T22:52:16.532Z,14.30
2022-10-23T22:54:46.581Z,14.30
2022-10-23T22:57:15.332Z,14.30
2022-10-23T22:59:43.923Z,14.30
2022-10-23T23:02:12.452Z,14.30
2022-10-23T23:04:41.295Z,14.30
2022-10-23T23:07:12.367Z,14.30
2022-10-23T23:09:44.842Z,14.30
2022-10-23T23:12:15.737Z,14.30
2022-10-23T23:14:44.782Z,14.30
2022-10-23T23:17:13.981Z,14.30
2022-10-23T23:19:42.516Z,14.30
2022-10-23T23:22:11.337Z,14.30
2022-10-23T23:24:40.060Z,14.30
2022-10-23T23:27:08.671Z,14.30
2022-10-23T23:29:38.707Z,14.40
2022-10-23T23:32:07.492Z,14.40
2022-10-23T23:34:36.023Z,14.40
2022-10-23T23:37:04.520Z,14.40
2022-10-23T23:39:33.286Z,14.40
2022-10-23T23:42:01.986Z,14.40
2022-10-23T23:44:30.684Z,14.40
2022-10-23T23:47:00.693Z,14.40
2022-10-23T23:49:29.216Z,14.40
2022-10-23T23:51:57.760Z,14.40
2022-10-23T23:54:26.307Z,14.40
2022-10-23T23:56:59.125Z,14.40
2022-10-23T23:59:27.800Z,14.30
